Time;durP1;ratioP1;P1;durP2;ratioP2;P2;SDS_P1;SDS_P2;PMS_P1;PMS_P2;Temp;Humidity;BMP_temperature;BMP_pressure;BME280_temperature;BME280_humidity;BME280_pressure;Samples;Min_cycle;Max_cycle;Signal;HPM_P1;HPM_P2
2023/03/04 00:00:17;;;;;;;12.60;11.30;;;22.80;51.70;;;;;;4983287;28;21035;-83
2023/03/04 00:02:45;;;;;;;12.07;10.93;;;22.80;51.70;;;;;;4976403;28;20462;-84
2023/03/04 00:05:13;;;;;;;14.97;11.33;;;22.80;51.70;;;;;;4986195;28;20969;-83
2023/03/04 00:07:41;;;;;;;12.57;11.30;;;22.70;51.70;;;;;;4990276;28;20480;-85
2023/03/04 00:10:11;;;;;;;12.87;10.80;;;22.70;51.70;;;;;;4991180;28;20516;-84
2023/03/04 00:12:39;;;;;;;10.27;9.33;;;22.70;51.70;;;;;;4986372;28;20508;-84
2023/03/04 00:15:09;;;;;;;12.73;10.50;;;22.70;51.70;;;;;;4985566;28;20492;-84
2023/03/04 00:17:38;;;;;;;12.13;10.53;;;22.70;51.70;;;;;;4989570;28;20626;-84
2023/03/04 00:20:08;;;;;;;11.53;10.40;;;22.70;51.80;;;;;;4988884;28;20457;-84
2023/03/04 00:22:36;;;;;;;13.53;10.17;;;22.60;51.70;;;;;;4983381;28;20461;-84
2023/03/04 00:25:05;;;;;;;11.73;10.20;;;22.60;51.90;;;;;;4984508;28;20453;-83
2023/03/04 00:27:33;;;;;;;11.70;10.50;;;22.60;51.90;;;;;;4985076;28;20584;-83
2023/03/04 00:30:03;;;;;;;11.43;9.60;;;22.60;52.00;;;;;;4983428;28;20935;-84
2023/03/04 00:32:31;;;;;;;11.87;10.60;;;22.60;51.90;;;;;;4971967;28;20560;-84
2023/03/04 00:35:00;;;;;;;10.10;9.20;;;22.50;51.90;;;;;;4969316;28;20456;-85
2023/03/04 00:37:29;;;;;;;12.43;10.00;;;22.50;52.00;;;;;;4989052;28;20461;-84
2023/03/04 00:39:57;;;;;;;12.10;10.90;;;22.50;52.00;;;;;;4990976;28;20461;-84
2023/03/04 00:42:25;;;;;;;12.30;11.00;;;22.50;52.00;;;;;;4986472;28;20458;-83
2023/03/04 00:44:53;;;;;;;12.50;10.60;;;22.50;52.00;;;;;;4985049;28;20496;-83
2023/03/04 00:47:21;;;;;;;13.00;10.70;;;22.50;52.00;;;;;;4990566;28;20543;-84
2023/03/04 00:49:49;;;;;;;10.90;9.93;;;22.50;52.00;;;;;;4977975;28;20556;-84
2023/03/04 00:52:19;;;;;;;11.27;9.83;;;22.50;52.00;;;;;;4985458;28;20468;-83
2023/03/04 00:54:47;;;;;;;11.97;10.77;;;22.50;52.10;;;;;;4979971;28;20959;-84
2023/03/04 00:57:15;;;;;;;11.63;10.53;;;22.50;52.10;;;;;;4990366;28;20460;-85
2023/03/04 00:59:45;;;;;;;11.17;10.07;;;22.50;52.10;;;;;;4974060;28;20464;-84
2023/03/04 01:02:13;;;;;;;11.77;9.57;;;22.50;52.10;;;;;;4989419;28;20519;-84
2023/03/04 01:04:41;;;;;;;11.77;10.13;;;22.50;52.00;;;;;;4990485;28;20963;-84
2023/03/04 01:07:10;;;;;;;11.47;10.00;;;22.50;52.00;;;;;;4971622;28;20466;-84
2023/03/04 01:09:40;;;;;;;11.57;10.40;;;22.50;51.90;;;;;;4971332;28;20956;-84
2023/03/04 01:12:08;;;;;;;11.07;9.77;;;22.50;51.90;;;;;;4985306;28;20965;-84
2023/03/04 01:14:37;;;;;;;13.73;10.50;;;22.50;51.80;;;;;;4972940;28;20473;-83
2023/03/04 01:17:05;;;;;;;12.67;10.60;;;22.50;51.80;;;;;;4986730;28;20461;-83
2023/03/04 01:19:33;;;;;;;11.33;10.30;;;22.50;51.70;;;;;;4974284;28;20854;-83
2023/03/04 01:22:02;;;;;;;11.70;10.47;;;22.60;51.70;;;;;;4972885;28;20857;-84
2023/03/04 01:24:30;;;;;;;11.63;10.37;;;22.60;51.60;;;;;;4991154;28;20465;-84
2023/03/04 01:27:00;;;;;;;10.80;9.90;;;22.60;51.60;;;;;;4982455;28;20494;-84
2023/03/04 01:29:28;;;;;;;12.63;11.30;;;22.60;51.60;;;;;;4954583;28;20506;-84
2023/03/04 01:31:57;;;;;;;10.83;9.80;;;22.50;51.60;;;;;;4978504;28;20496;-83
2023/03/04 01:34:25;;;;;;;11.93;10.70;;;22.50;51.60;;;;;;4973954;28;20802;-84
2023/03/04 01:36:53;;;;;;;11.63;10.50;;;22.50;51.60;;;;;;4974186;28;20484;-83
2023/03/04 01:39:22;;;;;;;10.63;9.60;;;22.50;51.60;;;;;;4971724;28;20434;-84
2023/03/04 01:41:51;;;;;;;11.00;9.57;;;22.50;51.60;;;;;;4974537;28;20962;-84
2023/03/04 01:44:21;;;;;;;11.17;10.07;;;22.50;51.60;;;;;;4967877;28;20545;-84
2023/03/04 01:46:52;;;;;;;9.50;8.70;;;22.50;51.70;;;;;;4987749;28;20444;-84
2023/03/04 01:49:21;;;;;;;10.50;9.60;;;22.50;51.70;;;;;;4991284;28;20446;-83
2023/03/04 01:51:52;;;;;;;9.83;9.03;;;22.40;51.70;;;;;;4990058;28;20995;-84
2023/03/04 01:54:22;;;;;;;11.33;10.20;;;22.40;51.70;;;;;;4986550;28;21133;-83
2023/03/04 01:56:52;;;;;;;9.50;8.70;;;22.40;51.70;;;;;;4987159;28;20959;-83
2023/03/04 01:59:23;;;;;;;12.00;10.47;;;22.40;51.70;;;;;;4990917;28;20966;-84
2023/03/04 02:01:54;;;;;;;10.80;9.80;;;22.40;51.70;;;;;;4971857;28;20560;-83
2023/03/04 02:04:24;;;;;;;10.07;9.27;;;22.40;51.80;;;;;;4987528;28;20463;-83
2023/03/04 02:06:53;;;;;;;11.17;10.20;;;22.40;51.80;;;;;;4992874;28;20438;-83
2023/03/04 02:09:22;;;;;;;11.70;10.60;;;22.30;51.80;;;;;;4985273;28;20458;-84
2023/03/04 02:11:52;;;;;;;10.97;9.90;;;22.40;51.80;;;;;;4973456;28;20477;-83
2023/03/04 02:14:22;;;;;;;9.70;8.83;;;22.30;51.80;;;;;;4975107;28;20455;-84
2023/03/04 02:16:51;;;;;;;10.23;9.23;;;22.30;51.80;;;;;;4972353;28;20996;-83
2023/03/04 02:19:30;;;;;;;11.30;10.37;;;22.30;51.80;;;;;;4985248;28;21010;-83
2023/03/04 02:21:58;;;;;;;12.20;11.00;;;22.30;51.80;;;;;;4983069;28;20550;-83
2023/03/04 02:24:32;;;;;;;11.70;10.50;;;22.30;51.80;;;;;;4975714;28;20469;-83
2023/03/04 02:27:01;;;;;;;10.13;9.23;;;22.30;51.80;;;;;;4992885;28;20485;-83
2023/03/04 02:29:30;;;;;;;10.73;9.83;;;22.30;51.80;;;;;;4976616;28;20460;-84
2023/03/04 02:31:58;;;;;;;11.00;10.07;;;22.30;51.80;;;;;;4992386;28;21053;-83
2023/03/04 02:34:31;;;;;;;11.40;10.30;;;22.30;51.80;;;;;;4989456;28;20464;-83
2023/03/04 02:36:59;;;;;;;9.60;8.70;;;22.30;51.80;;;;;;4993118;28;20430;-84
2023/03/04 02:39:33;;;;;;;11.20;10.20;;;22.30;51.70;;;;;;4974860;28;20473;-83
2023/03/04 02:42:04;;;;;;;11.13;10.13;;;22.30;51.70;;;;;;4969570;28;20474;-84
2023/03/04 02:44:36;;;;;;;10.90;9.90;;;22.30;51.70;;;;;;4971588;28;20454;-83
2023/03/04 02:47:06;;;;;;;10.90;9.90;;;22.30;51.70;;;;;;4974965;28;20492;-83
2023/03/04 02:49:35;;;;;;;11.97;10.80;;;22.30;51.70;;;;;;4975410;28;20528;-83
2023/03/04 02:52:06;;;;;;;12.13;11.03;;;22.30;51.60;;;;;;4968234;28;20513;-82
2023/03/04 02:54:35;;;;;;;10.87;9.80;;;22.30;51.60;;;;;;4993355;28;20540;-83
2023/03/04 02:57:06;;;;;;;10.73;9.73;;;22.30;51.60;;;;;;4973969;28;20758;-83
2023/03/04 02:59:36;;;;;;;11.00;10.03;;;22.30;51.60;;;;;;4972084;28;20636;-83
2023/03/04 03:02:06;;;;;;;11.13;10.03;;;22.30;51.60;;;;;;4969106;28;20551;-83
2023/03/04 03:04:37;;;;;;;10.47;9.50;;;22.30;51.60;;;;;;4967475;28;20461;-83
2023/03/04 03:07:08;;;;;;;11.63;10.53;;;22.30;51.50;;;;;;4961373;28;20476;-84
2023/03/04 03:09:38;;;;;;;10.57;9.70;;;22.30;51.50;;;;;;4970304;28;20458;-83
2023/03/04 03:12:07;;;;;;;10.73;9.73;;;22.30;51.50;;;;;;4989387;28;20573;-83
2023/03/04 03:14:35;;;;;;;11.40;10.20;;;22.30;51.60;;;;;;4975864;28;20858;-83
2023/03/04 03:17:05;;;;;;;11.23;10.17;;;22.30;51.60;;;;;;4992030;28;21033;-83
2023/03/04 03:19:33;;;;;;;12.27;11.07;;;22.30;51.60;;;;;;4993144;28;20952;-84
2023/03/04 03:22:04;;;;;;;11.47;10.40;;;22.30;51.60;;;;;;4972011;28;20508;-84
2023/03/04 03:24:32;;;;;;;10.40;9.50;;;22.30;51.60;;;;;;4964194;28;20966;-84
2023/03/04 03:27:00;;;;;;;11.30;10.37;;;22.30;51.60;;;;;;4973501;28;20973;-84
2023/03/04 03:29:30;;;;;;;10.53;9.63;;;22.30;51.60;;;;;;4975298;28;20460;-84
2023/03/04 03:31:59;;;;;;;10.43;9.43;;;22.20;51.60;;;;;;4971533;28;20470;-83
2023/03/04 03:34:27;;;;;;;9.90;9.00;;;22.20;51.60;;;;;;4989011;28;20456;-83
2023/03/04 03:36:56;;;;;;;11.57;10.37;;;22.20;51.60;;;;;;4974736;28;20944;-83
2023/03/04 03:39:24;;;;;;;11.27;10.27;;;22.20;51.60;;;;;;4992751;28;20456;-83
2023/03/04 03:41:52;;;;;;;10.70;9.70;;;22.20;51.60;;;;;;4986626;28;20483;-83
2023/03/04 03:44:20;;;;;;;10.57;9.67;;;22.20;51.60;;;;;;4992519;28;20460;-83
2023/03/04 03:46:50;;;;;;;11.80;10.70;;;22.20;51.60;;;;;;4992604;28;20437;-83
2023/03/04 03:49:18;;;;;;;11.37;10.40;;;22.20;51.60;;;;;;4991820;28;20543;-83
2023/03/04 03:51:46;;;;;;;10.53;9.60;;;22.20;51.70;;;;;;4991901;28;20483;-83
2023/03/04 03:54:14;;;;;;;10.23;9.33;;;22.20;51.70;;;;;;4991181;28;20499;-83
2023/03/04 03:56:42;;;;;;;11.60;10.67;;;22.20;51.70;;;;;;4985740;28;20578;-83
2023/03/04 03:59:10;;;;;;;11.50;10.40;;;22.20;51.70;;;;;;4991395;28;20463;-83
2023/03/04 04:01:38;;;;;;;10.70;9.70;;;22.20;51.70;;;;;;4990743;28;20461;-83
2023/03/04 04:04:08;;;;;;;10.40;9.50;;;22.20;51.70;;;;;;4986974;28;20596;-83
2023/03/04 04:06:36;;;;;;;10.80;9.70;;;22.20;51.70;;;;;;4975154;28;20451;-83
2023/03/04 04:09:04;;;;;;;10.80;9.77;;;22.20;51.60;;;;;;4988788;28;20563;-83
2023/03/04 04:11:32;;;;;;;10.83;9.90;;;22.20;51.60;;;;;;4968369;28;20472;-84
2023/03/04 04:14:01;;;;;;;11.40;10.40;;;22.20;51.60;;;;;;4972746;28;20550;-83
2023/03/04 04:16:29;;;;;;;11.50;10.40;;;22.20;51.60;;;;;;4982741;28;20492;-83
2023/03/04 04:18:57;;;;;;;11.47;10.47;;;22.20;51.60;;;;;;4985945;28;20501;-83
2023/03/04 04:21:27;;;;;;;10.97;9.87;;;22.20;51.60;;;;;;4979666;28;20582;-84
2023/03/04 04:23:55;;;;;;;11.00;10.00;;;22.20;51.60;;;;;;4988747;28;20535;-83
2023/03/04 04:26:23;;;;;;;11.40;10.40;;;22.20;51.60;;;;;;4972087;28;20976;-83
2023/03/04 04:28:51;;;;;;;11.50;10.50;;;22.10;51.60;;;;;;4990535;28;20539;-84
2023/03/04 04:31:19;;;;;;;11.00;10.10;;;22.10;51.60;;;;;;4991262;28;20807;-83
2023/03/04 04:33:47;;;;;;;11.20;10.10;;;22.10;51.60;;;;;;4987810;28;20472;-83
2023/03/04 04:36:16;;;;;;;11.43;10.33;;;22.10;51.60;;;;;;4991652;28;20984;-83
2023/03/04 04:38:45;;;;;;;10.17;9.37;;;22.10;51.50;;;;;;4989920;28;20452;-83
2023/03/04 04:41:21;;;;;;;10.97;9.80;;;22.10;51.60;;;;;;4986219;28;20460;-84
2023/03/04 04:43:49;;;;;;;11.47;10.57;;;22.10;51.60;;;;;;4989819;28;20443;-84
2023/03/04 04:46:18;;;;;;;10.00;9.10;;;22.10;51.60;;;;;;4971897;28;20577;-83
2023/03/04 04:48:46;;;;;;;11.13;10.23;;;22.10;51.50;;;;;;4981458;28;20457;-83
2023/03/04 04:51:14;;;;;;;10.73;9.80;;;22.10;51.60;;;;;;4975862;28;20464;-84
2023/03/04 04:53:43;;;;;;;10.47;9.57;;;22.10;51.50;;;;;;4989175;28;21018;-84
2023/03/04 04:56:15;;;;;;;10.70;9.60;;;22.10;51.50;;;;;;4991404;28;20438;-83
2023/03/04 04:58:45;;;;;;;10.73;9.80;;;22.10;51.50;;;;;;4989949;28;20449;-83
2023/03/04 05:01:14;;;;;;;10.73;9.83;;;22.10;51.50;;;;;;4987003;28;20479;-83
2023/03/04 05:03:43;;;;;;;10.97;10.03;;;22.10;51.50;;;;;;4985735;28;20455;-83
2023/03/04 05:06:12;;;;;;;10.10;9.20;;;22.10;51.50;;;;;;4972402;28;20478;-83
2023/03/04 05:08:40;;;;;;;11.20;10.10;;;22.10;51.50;;;;;;4986247;28;20460;-83
2023/03/04 05:11:09;;;;;;;11.47;10.47;;;22.10;51.50;;;;;;4985632;28;20457;-83
2023/03/04 05:13:38;;;;;;;11.57;10.50;;;22.10;51.50;;;;;;4974685;28;20480;-82
2023/03/04 05:16:07;;;;;;;10.10;9.20;;;22.10;51.50;;;;;;4971972;28;20856;-83
2023/03/04 05:18:36;;;;;;;10.87;9.87;;;22.10;51.50;;;;;;4983008;28;20967;-83
2023/03/04 05:21:04;;;;;;;9.97;9.07;;;22.10;51.50;;;;;;4972211;28;20483;-83
2023/03/04 05:23:35;;;;;;;12.43;11.50;;;22.10;51.50;;;;;;4989647;28;20457;-83
2023/03/04 05:26:04;;;;;;;9.43;8.53;;;22.00;51.50;;;;;;4974079;28;20925;-83
2023/03/04 05:28:34;;;;;;;10.80;9.87;;;22.00;51.50;;;;;;4986549;28;21381;-83
2023/03/04 05:31:04;;;;;;;10.90;9.90;;;22.00;51.50;;;;;;4985173;28;20469;-83
2023/03/04 05:33:34;;;;;;;9.87;9.03;;;22.00;51.50;;;;;;4977840;28;20478;-83
2023/03/04 05:36:03;;;;;;;10.80;9.80;;;22.00;51.50;;;;;;4988516;28;20488;-83
2023/03/04 05:38:32;;;;;;;11.03;9.93;;;22.00;51.60;;;;;;4989808;28;20982;-83
2023/03/04 05:41:02;;;;;;;11.43;10.43;;;22.00;51.50;;;;;;4993119;28;20503;-83
2023/03/04 05:43:33;;;;;;;11.13;10.23;;;22.00;51.50;;;;;;4987197;28;20464;-83
2023/03/04 05:46:01;;;;;;;11.13;10.03;;;22.00;51.50;;;;;;4972777;28;20488;-83
2023/03/04 05:48:31;;;;;;;11.20;10.20;;;22.00;51.50;;;;;;4977918;28;20522;-83
2023/03/04 05:51:01;;;;;;;11.60;10.60;;;22.00;51.50;;;;;;4994806;28;20435;-83
2023/03/04 05:53:30;;;;;;;9.57;8.80;;;22.00;51.50;;;;;;4984456;28;20560;-83
2023/03/04 05:55:58;;;;;;;12.23;9.63;;;22.00;51.50;;;;;;4989664;28;20500;-83
2023/03/04 05:58:27;;;;;;;10.20;9.40;;;22.00;51.40;;;;;;4992471;28;20465;-83
2023/03/04 06:00:55;;;;;;;9.53;8.70;;;22.00;51.40;;;;;;4987791;28;20461;-82
2023/03/04 06:03:23;;;;;;;10.17;9.27;;;22.00;51.40;;;;;;4978870;28;20493;-83
2023/03/04 06:05:53;;;;;;;9.93;9.03;;;22.00;51.40;;;;;;4992303;28;20555;-83
2023/03/04 06:08:22;;;;;;;10.40;9.50;;;22.00;51.30;;;;;;4979514;28;20492;-83
2023/03/04 06:10:53;;;;;;;11.10;10.00;;;22.00;51.30;;;;;;4988173;28;20454;-83
2023/03/04 06:13:21;;;;;;;10.60;9.67;;;22.00;51.30;;;;;;4991325;28;21443;-83
2023/03/04 06:15:54;;;;;;;11.80;10.50;;;22.00;51.30;;;;;;4984481;28;20976;-83
2023/03/04 06:18:23;;;;;;;10.37;9.47;;;22.00;51.30;;;;;;4984850;28;20452;-83
2023/03/04 06:20:56;;;;;;;10.13;9.13;;;22.00;51.20;;;;;;4993575;28;20449;-83
2023/03/04 06:23:25;;;;;;;10.83;9.93;;;22.00;51.30;;;;;;4992956;28;20990;-83
2023/03/04 06:25:53;;;;;;;10.80;9.80;;;22.00;51.30;;;;;;4986071;28;20443;-83
2023/03/04 06:28:22;;;;;;;11.90;10.90;;;22.00;51.30;;;;;;4982567;28;20502;-83
2023/03/04 06:30:52;;;;;;;11.60;10.50;;;22.00;51.30;;;;;;4991809;28;20463;-83
2023/03/04 06:33:20;;;;;;;11.07;10.17;;;22.00;51.30;;;;;;4987880;28;20540;-82
2023/03/04 06:35:48;;;;;;;10.00;9.13;;;22.00;51.30;;;;;;4986942;28;20913;-83
2023/03/04 06:38:18;;;;;;;10.63;9.50;;;22.00;51.30;;;;;;4974895;28;20863;-83
2023/03/04 06:40:46;;;;;;;9.80;8.90;;;21.90;51.30;;;;;;4978468;28;20557;-84
2023/03/04 06:43:14;;;;;;;9.63;8.93;;;21.90;51.40;;;;;;4975098;28;20466;-84
2023/03/04 06:45:42;;;;;;;9.93;9.03;;;21.90;51.40;;;;;;4975926;28;20472;-84
2023/03/04 06:48:10;;;;;;;10.33;9.33;;;21.90;51.40;;;;;;4972537;28;20474;-83
2023/03/04 06:50:40;;;;;;;9.93;9.00;;;21.90;51.40;;;;;;4973500;28;21042;-82
2023/03/04 06:53:08;;;;;;;9.40;8.60;;;21.90;51.50;;;;;;4978905;28;20460;-83
2023/03/04 06:55:38;;;;;;;9.43;8.63;;;21.90;51.50;;;;;;4975522;28;20478;-83
2023/03/04 06:58:06;;;;;;;9.67;8.77;;;21.90;51.50;;;;;;4982055;28;20467;-83
2023/03/04 07:00:34;;;;;;;10.30;9.50;;;21.90;51.50;;;;;;4975952;28;20961;-83
2023/03/04 07:03:02;;;;;;;9.23;8.50;;;21.90;51.50;;;;;;4979049;28;20475;-83
2023/03/04 07:05:30;;;;;;;9.60;8.63;;;21.90;51.50;;;;;;4981638;28;20464;-83
2023/03/04 07:07:58;;;;;;;10.23;9.23;;;21.90;51.50;;;;;;4976272;28;20474;-83
2023/03/04 07:10:27;;;;;;;9.57;8.70;;;21.90;51.40;;;;;;4974991;28;20542;-84
2023/03/04 07:12:56;;;;;;;10.27;9.37;;;22.00;51.30;;;;;;4978899;28;20479;-84
2023/03/04 07:15:24;;;;;;;10.43;9.47;;;22.00;51.30;;;;;;4975747;28;20486;-83
2023/03/04 07:17:53;;;;;;;9.73;9.00;;;22.00;51.20;;;;;;4978258;28;20541;-84
2023/03/04 07:20:21;;;;;;;9.33;8.57;;;22.10;51.10;;;;;;4974609;28;20466;-83
2023/03/04 07:22:49;;;;;;;10.07;9.17;;;22.10;51.00;;;;;;4977471;28;20561;-83
2023/03/04 07:25:17;;;;;;;10.57;9.67;;;22.10;51.00;;;;;;4956724;28;20682;-83
2023/03/04 07:27:46;;;;;;;9.33;8.53;;;22.10;50.90;;;;;;4974890;28;21178;-83
2023/03/04 07:30:16;;;;;;;10.80;9.90;;;22.10;50.90;;;;;;4974383;28;20470;-84
2023/03/04 07:32:45;;;;;;;10.47;9.57;;;22.10;50.80;;;;;;4973694;28;20464;-83
2023/03/04 07:35:14;;;;;;;10.57;9.37;;;22.10;50.80;;;;;;4975031;28;20530;-83
2023/03/04 07:37:42;;;;;;;9.40;8.60;;;22.10;50.80;;;;;;4983837;28;20501;-83
2023/03/04 07:40:11;;;;;;;9.90;9.00;;;22.10;50.80;;;;;;4988855;28;20567;-83
2023/03/04 07:42:39;;;;;;;9.40;8.60;;;22.10;50.80;;;;;;4983297;28;20497;-83
2023/03/04 07:45:12;;;;;;;9.60;8.70;;;22.10;50.90;;;;;;4968512;28;20468;-82
2023/03/04 07:47:41;;;;;;;9.90;9.10;;;22.10;51.00;;;;;;4979153;28;20934;-83
2023/03/04 07:50:11;;;;;;;10.20;9.20;;;22.10;51.00;;;;;;4974159;28;20499;-83
2023/03/04 07:52:40;;;;;;;10.13;9.17;;;22.10;51.10;;;;;;4984128;28;20522;-83
2023/03/04 07:55:09;;;;;;;9.70;8.83;;;22.10;51.10;;;;;;4989555;28;20481;-83
2023/03/04 07:57:39;;;;;;;8.90;8.17;;;22.10;51.10;;;;;;4984706;28;20490;-83
2023/03/04 08:00:09;;;;;;;8.83;8.13;;;22.10;51.20;;;;;;4988510;28;20500;-83
2023/03/04 08:02:41;;;;;;;10.50;9.60;;;22.10;51.20;;;;;;4984593;28;20573;-82
2023/03/04 08:05:10;;;;;;;9.60;8.80;;;22.10;51.30;;;;;;4987297;28;20464;-83
2023/03/04 08:07:38;;;;;;;10.93;9.90;;;22.10;51.30;;;;;;4986093;28;20462;-83
2023/03/04 08:10:07;;;;;;;9.60;8.77;;;22.10;51.30;;;;;;4968419;28;20486;-83
2023/03/04 08:12:36;;;;;;;10.50;9.50;;;22.10;51.30;;;;;;4981468;28;20487;-83
2023/03/04 08:15:05;;;;;;;10.30;9.40;;;22.10;51.30;;;;;;4987365;28;20971;-82
2023/03/04 08:17:33;;;;;;;10.10;9.23;;;22.10;51.30;;;;;;4986153;28;20481;-83
2023/03/04 08:20:03;;;;;;;10.27;9.37;;;22.10;51.30;;;;;;4991179;28;20551;-83
2023/03/04 08:22:31;;;;;;;9.70;8.73;;;22.10;51.30;;;;;;4989433;28;21044;-83
2023/03/04 08:24:59;;;;;;;9.20;8.33;;;22.10;51.30;;;;;;4985856;28;20937;-82
2023/03/04 08:27:27;;;;;;;10.50;9.60;;;22.10;51.30;;;;;;4979997;28;20505;-82
2023/03/04 08:29:56;;;;;;;9.30;8.40;;;22.10;51.30;;;;;;4991308;28;20952;-83
2023/03/04 08:32:24;;;;;;;10.20;9.30;;;22.10;51.30;;;;;;4991146;28;20472;-83
2023/03/04 08:34:55;;;;;;;8.20;7.50;;;22.10;51.30;;;;;;4987095;28;20456;-83
2023/03/04 08:37:24;;;;;;;9.80;9.00;;;22.10;51.30;;;;;;4983513;28;20461;-83
2023/03/04 08:39:52;;;;;;;10.73;9.67;;;22.10;51.40;;;;;;4969161;28;20469;-83
2023/03/04 08:42:21;;;;;;;9.50;8.67;;;22.10;51.30;;;;;;4981113;28;20548;-83
2023/03/04 08:44:49;;;;;;;10.77;9.80;;;22.20;51.30;;;;;;4974825;28;20478;-82
2023/03/04 08:47:17;;;;;;;11.10;10.07;;;22.20;51.30;;;;;;4980851;28;20551;-83
2023/03/04 08:49:45;;;;;;;9.73;8.83;;;22.20;51.30;;;;;;4976646;28;20484;-83
2023/03/04 08:52:14;;;;;;;9.23;8.43;;;22.20;51.30;;;;;;4979208;28;20468;-83
2023/03/04 08:54:43;;;;;;;9.67;8.87;;;22.20;51.30;;;;;;4978036;28;20545;-82
2023/03/04 08:57:11;;;;;;;10.00;9.07;;;22.20;51.30;;;;;;4977187;28;20561;-82
2023/03/04 08:59:39;;;;;;;9.73;8.77;;;22.20;51.30;;;;;;4978040;28;20478;-82
2023/03/04 09:02:08;;;;;;;9.67;8.87;;;22.30;51.30;;;;;;4960318;28;20477;-82
2023/03/04 09:04:36;;;;;;;8.57;7.77;;;22.30;51.30;;;;;;4978026;28;20472;-82
2023/03/04 09:07:04;;;;;;;9.60;8.80;;;22.30;51.20;;;;;;4977099;28;20553;-83
2023/03/04 09:09:32;;;;;;;10.40;9.40;;;22.30;51.20;;;;;;4956569;28;21664;-83
2023/03/04 09:12:02;;;;;;;8.67;8.00;;;22.30;51.20;;;;;;4972350;28;20459;-83
2023/03/04 09:14:31;;;;;;;8.70;7.90;;;22.30;51.20;;;;;;4972913;28;20579;-83
2023/03/04 09:16:59;;;;;;;10.10;9.20;;;22.30;51.20;;;;;;4975942;28;20569;-83
2023/03/04 09:19:27;;;;;;;9.23;8.40;;;22.30;51.20;;;;;;4985073;28;20575;-83
2023/03/04 09:21:58;;;;;;;10.33;8.60;;;22.30;51.20;;;;;;4979124;28;20477;-83
2023/03/04 09:24:26;;;;;;;8.63;8.03;;;22.30;51.30;;;;;;4976459;28;20500;-83
2023/03/04 09:26:55;;;;;;;9.53;8.73;;;22.30;51.30;;;;;;4980296;28;20528;-83
2023/03/04 09:29:24;;;;;;;8.37;7.73;;;22.30;51.30;;;;;;4985880;28;20505;-81
2023/03/04 09:31:53;;;;;;;9.73;8.83;;;22.30;51.30;;;;;;4968117;28;20466;-82
2023/03/04 09:34:21;;;;;;;11.97;10.53;;;22.30;52.00;;;;;;4980523;28;20472;-83
2023/03/04 09:36:49;;;;;;;12.10;10.10;;;22.30;53.90;;;;;;4980137;28;20495;-81
2023/03/04 09:39:17;;;;;;;10.30;9.23;;;22.30;54.10;;;;;;4981200;28;20977;-83
2023/03/04 09:41:48;;;;;;;11.70;10.50;;;22.30;53.90;;;;;;4978983;28;20492;-82
2023/03/04 09:44:23;;;;;;;14.77;10.73;;;22.40;54.00;;;;;;4981283;28;20486;-83
2023/03/04 09:46:55;;;;;;;10.07;8.90;;;22.40;53.90;;;;;;4978893;28;21029;-85
2023/03/04 09:49:23;;;;;;;10.47;9.37;;;22.40;53.60;;;;;;4978840;28;20454;-84
2023/03/04 09:51:57;;;;;;;11.17;9.77;;;22.40;53.50;;;;;;4985657;28;20551;-84
2023/03/04 09:54:42;;;;;;;12.40;11.03;;;22.40;53.50;;;;;;4977053;28;20505;-83
2023/03/04 09:57:23;;;;;;;10.37;9.30;;;22.40;53.30;;;;;;4987702;28;20576;-84
2023/03/04 10:00:00;;;;;;;10.03;9.00;;;22.40;53.10;;;;;;4989809;28;20471;-84
2023/03/04 10:02:47;;;;;;;9.70;8.70;;;22.40;53.00;;;;;;4992314;28;20528;-84
2023/03/04 10:05:19;;;;;;;11.57;10.40;;;22.50;52.90;;;;;;4985856;28;20493;-84
2023/03/04 10:07:55;;;;;;;10.27;9.20;;;22.50;52.80;;;;;;4988875;28;20439;-85
2023/03/04 10:10:30;;;;;;;11.07;9.87;;;22.50;52.70;;;;;;4990722;28;20496;-85
2023/03/04 10:13:01;;;;;;;10.03;8.93;;;22.50;52.60;;;;;;4988340;28;20450;-84
2023/03/04 10:15:35;;;;;;;9.87;8.97;;;22.60;52.50;;;;;;4984431;28;20449;-84
2023/03/04 10:18:18;;;;;;;10.47;8.63;;;22.60;52.40;;;;;;4986086;28;20489;-85
2023/03/04 10:20:53;;;;;;;12.63;9.70;;;22.60;52.40;;;;;;4990954;28;20454;-84
2023/03/04 10:23:24;;;;;;;10.50;8.23;;;22.60;52.30;;;;;;4986575;28;20567;-84
2023/03/04 10:25:53;;;;;;;10.53;9.33;;;22.70;52.40;;;;;;4982712;28;20454;-84
2023/03/04 10:28:25;;;;;;;9.23;8.33;;;22.70;52.30;;;;;;4991151;28;21013;-86
2023/03/04 10:30:59;;;;;;;9.80;8.90;;;22.70;52.20;;;;;;4963803;28;20525;-81
2023/03/04 10:33:31;;;;;;;9.00;8.10;;;22.80;52.20;;;;;;4977464;28;20462;-84
2023/03/04 10:36:02;;;;;;;10.93;8.53;;;22.80;52.30;;;;;;4972177;28;20526;-82
2023/03/04 10:38:32;;;;;;;9.73;8.73;;;22.80;52.30;;;;;;4978066;28;20496;-83
2023/03/04 10:41:01;;;;;;;10.53;9.13;;;22.90;52.20;;;;;;4984754;28;20453;-84
2023/03/04 10:43:30;;;;;;;10.20;9.20;;;22.90;52.10;;;;;;4976565;28;20458;-85
2023/03/04 10:46:00;;;;;;;9.80;8.77;;;23.00;52.00;;;;;;4966727;28;20450;-86
2023/03/04 10:48:31;;;;;;;10.03;8.47;;;23.00;52.00;;;;;;4976665;28;20483;-85
2023/03/04 10:51:16;;;;;;;8.37;7.57;;;23.00;51.90;;;;;;4977436;28;20446;-84
2023/03/04 10:53:46;;;;;;;8.97;8.07;;;23.10;51.80;;;;;;4983175;28;20472;-83
2023/03/04 10:56:35;;;;;;;8.77;7.93;;;23.10;51.90;;;;;;4980354;28;20483;-83
2023/03/04 10:59:30;;;;;;;9.03;8.20;;;23.10;51.90;;;;;;4984957;28;20484;-84
2023/03/04 11:02:01;;;;;;;8.87;8.03;;;23.20;51.90;;;;;;4986801;28;20530;-83
2023/03/04 11:04:34;;;;;;;8.90;8.00;;;23.30;51.80;;;;;;4988096;28;20612;-83
2023/03/04 11:07:07;;;;;;;9.23;8.20;;;23.40;51.80;;;;;;4985087;28;20475;-83
2023/03/04 11:09:36;;;;;;;10.00;8.63;;;23.50;51.70;;;;;;4984808;28;20462;-82
2023/03/04 11:12:11;;;;;;;10.43;8.17;;;23.80;51.20;;;;;;4974344;28;20461;-82
2023/03/04 11:14:43;;;;;;;10.00;8.60;;;24.00;50.80;;;;;;4987474;28;20497;-83
2023/03/04 11:17:21;;;;;;;9.70;8.77;;;24.10;50.40;;;;;;4984172;28;20483;-83
2023/03/04 11:19:55;;;;;;;7.93;7.13;;;24.30;50.00;;;;;;4977395;28;20454;-82
2023/03/04 11:22:25;;;;;;;9.13;7.93;;;24.50;49.70;;;;;;4980222;28;20531;-83
2023/03/04 11:24:58;;;;;;;8.80;8.00;;;24.60;49.40;;;;;;4977402;28;20451;-83
2023/03/04 11:27:38;;;;;;;8.53;7.73;;;24.70;49.20;;;;;;4977833;28;20995;-84
2023/03/04 11:30:25;;;;;;;10.63;8.07;;;24.80;49.00;;;;;;4976074;28;21050;-79
2023/03/04 11:33:00;;;;;;;9.13;8.13;;;24.90;48.90;;;;;;4977442;28;20569;-79
2023/03/04 11:35:34;;;;;;;8.17;7.33;;;25.00;48.70;;;;;;4980284;28;20454;-80
2023/03/04 11:38:10;;;;;;;10.47;7.67;;;25.10;48.50;;;;;;4985633;28;20478;-82
2023/03/04 11:40:43;;;;;;;9.30;8.50;;;25.10;48.40;;;;;;4986588;28;20463;-81
2023/03/04 11:43:17;;;;;;;9.60;8.60;;;25.10;48.40;;;;;;4986287;28;20463;-84
2023/03/04 11:46:28;;;;;;;11.00;8.00;;;25.20;48.30;;;;;;4970217;28;20504;-83
2023/03/04 11:49:12;;;;;;;9.07;8.03;;;25.20;48.20;;;;;;4985220;28;20562;-84
2023/03/04 11:51:51;;;;;;;10.67;8.10;;;25.20;48.10;;;;;;4988738;28;20491;-83
2023/03/04 11:54:28;;;;;;;10.53;7.63;;;25.20;48.20;;;;;;4982871;28;20979;-84
2023/03/04 11:57:00;;;;;;;10.20;7.27;;;25.10;48.20;;;;;;4986875;28;20569;-88
2023/03/04 11:59:48;;;;;;;8.77;7.93;;;25.10;48.30;;;;;;4987028;28;20559;-87
2023/03/04 12:02:19;;;;;;;8.90;7.70;;;25.10;48.30;;;;;;4990258;28;20459;-85
2023/03/04 12:05:02;;;;;;;6.83;6.20;;;25.10;48.30;;;;;;4988691;28;20810;-85
2023/03/04 12:07:59;;;;;;;10.80;8.20;;;25.10;48.30;;;;;;4988104;28;20551;-85
2023/03/04 12:10:35;;;;;;;10.90;7.47;;;25.10;48.20;;;;;;4981967;28;20501;-86
2023/03/04 12:13:35;;;;;;;8.40;7.60;;;25.10;48.20;;;;;;4976879;28;20964;-86
2023/03/04 12:16:15;;;;;;;8.07;6.73;;;25.20;48.10;;;;;;4985982;28;20482;-86
2023/03/04 12:19:04;;;;;;;8.20;7.40;;;25.20;48.10;;;;;;4984653;28;20535;-84
2023/03/04 12:22:07;;;;;;;8.73;7.03;;;25.20;48.10;;;;;;4978048;28;20461;-84
2023/03/04 12:25:02;;;;;;;9.30;7.93;;;25.10;48.10;;;;;;4967473;28;20503;-83
2023/03/04 12:27:39;;;;;;;8.77;7.90;;;25.10;48.30;;;;;;4988198;28;20487;-82
2023/03/04 12:30:21;;;;;;;8.30;7.50;;;25.10;48.30;;;;;;4981811;28;20455;-84
2023/03/04 12:32:55;;;;;;;9.23;7.73;;;25.00;48.30;;;;;;4985371;28;20478;-85
2023/03/04 12:35:33;;;;;;;10.23;8.43;;;25.00;48.30;;;;;;4985697;28;20549;-83
2023/03/04 12:38:19;;;;;;;10.53;8.23;;;25.00;48.20;;;;;;4974602;28;20487;-82
2023/03/04 12:40:55;;;;;;;8.00;7.20;;;24.90;48.20;;;;;;4981743;28;20533;-83
2023/03/04 12:43:40;;;;;;;12.10;8.40;;;25.00;48.10;;;;;;4979530;28;20498;-83
2023/03/04 12:46:28;;;;;;;15.30;9.20;;;24.90;48.20;;;;;;4984286;28;20549;-83
2023/03/04 12:49:18;;;;;;;13.50;8.73;;;24.80;48.20;;;;;;4979132;28;20529;-83
2023/03/04 12:51:55;;;;;;;13.80;9.53;;;24.80;48.20;;;;;;4980190;28;20496;-82
2023/03/04 12:54:31;;;;;;;10.17;8.80;;;24.80;47.40;;;;;;4981236;28;20468;-83